sensor_id;sensor_type;location;lat;lon;timestamp;temperature;humidity
41294;DHT22;27037;52.010;4.446;2023-07-20T00:02:23;17.60;99.90
41294;DHT22;27037;52.010;4.446;2023-07-20T00:04:49;17.60;99.90
41294;DHT22;27037;52.010;4.446;2023-07-20T00:07:15;17.60;99.90
41294;DHT22;27037;52.010;4.446;2023-07-20T00:09:40;17.60;99.90
41294;DHT22;27037;52.010;4.446;2023-07-20T00:12:06;17.60;99.90
41294;DHT22;27037;52.010;4.446;2023-07-20T00:14:32;17.60;99.90
41294;DHT22;27037;52.010;4.446;2023-07-20T00:16:58;17.50;99.90
41294;DHT22;27037;52.010;4.446;2023-07-20T00:19:27;17.50;99.90
41294;DHT22;27037;52.010;4.446;2023-07-20T00:21:54;17.50;99.90
41294;DHT22;27037;52.010;4.446;2023-07-20T00:24:20;17.50;99.90
41294;DHT22;27037;52.010;4.446;2023-07-20T00:26:46;17.50;99.90
41294;DHT22;27037;52.010;4.446;2023-07-20T00:29:12;17.50;99.90
41294;DHT22;27037;52.010;4.446;2023-07-20T00:31:37;17.50;99.90
41294;DHT22;27037;52.010;4.446;2023-07-20T00:34:04;17.50;99.90
41294;DHT22;27037;52.010;4.446;2023-07-20T00:36:30;17.40;99.90
41294;DHT22;27037;52.010;4.446;2023-07-20T00:38:55;17.40;99.90
41294;DHT22;27037;52.010;4.446;2023-07-20T00:41:21;17.30;99.90
41294;DHT22;27037;52.010;4.446;2023-07-20T00:43:47;17.20;99.90
41294;DHT22;27037;52.010;4.446;2023-07-20T00:46:13;17.10;99.90
41294;DHT22;27037;52.010;4.446;2023-07-20T00:48:40;17.10;99.90
41294;DHT22;27037;52.010;4.446;2023-07-20T00:51:07;17.10;99.90
41294;DHT22;27037;52.010;4.446;2023-07-20T00:53:32;17.10;99.90
41294;DHT22;27037;52.010;4.446;2023-07-20T00:55:58;17.10;99.90
41294;DHT22;27037;52.010;4.446;2023-07-20T00:58:24;17.10;99.90
41294;DHT22;27037;52.010;4.446;2023-07-20T01:00:50;17.10;99.90
41294;DHT22;27037;52.010;4.446;2023-07-20T01:03:16;17.10;99.90
41294;DHT22;27037;52.010;4.446;2023-07-20T01:11:37;17.10;99.90
41294;DHT22;27037;52.010;4.446;2023-07-20T01:14:05;17.20;99.90
41294;DHT22;27037;52.010;4.446;2023-07-20T01:16:30;17.20;99.90
41294;DHT22;27037;52.010;4.446;2023-07-20T01:18:56;17.10;99.90
41294;DHT22;27037;52.010;4.446;2023-07-20T01:32:21;17.00;99.90
41294;DHT22;27037;52.010;4.446;2023-07-20T01:34:50;17.00;99.90
41294;DHT22;27037;52.010;4.446;2023-07-20T01:37:18;16.90;99.90
41294;DHT22;27037;52.010;4.446;2023-07-20T01:39:45;16.90;99.90
41294;DHT22;27037;52.010;4.446;2023-07-20T01:42:12;16.90;99.90
41294;DHT22;27037;52.010;4.446;2023-07-20T01:44:38;16.80;99.90
41294;DHT22;27037;52.010;4.446;2023-07-20T01:47:04;16.80;99.90
41294;DHT22;27037;52.010;4.446;2023-07-20T01:49:30;16.80;99.90
41294;DHT22;27037;52.010;4.446;2023-07-20T01:51:55;16.80;99.90
41294;DHT22;27037;52.010;4.446;2023-07-20T01:54:21;16.80;99.90
41294;DHT22;27037;52.010;4.446;2023-07-20T01:56:47;16.80;99.90
41294;DHT22;27037;52.010;4.446;2023-07-20T01:59:12;16.80;99.90
41294;DHT22;27037;52.010;4.446;2023-07-20T02:01:38;16.80;99.90
41294;DHT22;27037;52.010;4.446;2023-07-20T02:04:03;16.80;99.90
41294;DHT22;27037;52.010;4.446;2023-07-20T02:06:29;16.80;99.90
41294;DHT22;27037;52.010;4.446;2023-07-20T02:08:55;16.90;99.90
41294;DHT22;27037;52.010;4.446;2023-07-20T02:11:21;16.80;99.90
41294;DHT22;27037;52.010;4.446;2023-07-20T02:13:46;16.90;99.90
41294;DHT22;27037;52.010;4.446;2023-07-20T02:16:12;16.80;99.90
41294;DHT22;27037;52.010;4.446;2023-07-20T02:18:37;16.80;99.90
41294;DHT22;27037;52.010;4.446;2023-07-20T02:21:03;16.80;99.90
41294;DHT22;27037;52.010;4.446;2023-07-20T02:23:29;16.80;99.90
41294;DHT22;27037;52.010;4.446;2023-07-20T02:25:54;16.80;99.90
41294;DHT22;27037;52.010;4.446;2023-07-20T02:28:20;16.70;99.90
41294;DHT22;27037;52.010;4.446;2023-07-20T02:30:46;16.60;99.90
41294;DHT22;27037;52.010;4.446;2023-07-20T02:33:11;16.60;99.90
41294;DHT22;27037;52.010;4.446;2023-07-20T02:35:37;16.60;99.90
41294;DHT22;27037;52.010;4.446;2023-07-20T02:38:03;16.70;99.90
41294;DHT22;27037;52.010;4.446;2023-07-20T02:40:29;16.70;99.90
41294;DHT22;27037;52.010;4.446;2023-07-20T02:42:54;16.70;99.90
41294;DHT22;27037;52.010;4.446;2023-07-20T02:45:20;16.70;99.90
41294;DHT22;27037;52.010;4.446;2023-07-20T02:47:45;16.60;99.90
41294;DHT22;27037;52.010;4.446;2023-07-20T02:50:11;16.70;99.90
41294;DHT22;27037;52.010;4.446;2023-07-20T02:52:39;16.60;99.90
41294;DHT22;27037;52.010;4.446;2023-07-20T02:55:05;16.60;99.90
41294;DHT22;27037;52.010;4.446;2023-07-20T02:57:31;16.50;99.90
41294;DHT22;27037;52.010;4.446;2023-07-20T02:59:56;16.50;99.90
41294;DHT22;27037;52.010;4.446;2023-07-20T03:02:22;16.50;99.90
41294;DHT22;27037;52.010;4.446;2023-07-20T03:04:47;16.50;99.90
41294;DHT22;27037;52.010;4.446;2023-07-20T03:07:13;16.40;99.90
41294;DHT22;27037;52.010;4.446;2023-07-20T03:09:39;16.40;99.90
41294;DHT22;27037;52.010;4.446;2023-07-20T03:12:05;16.40;99.90
41294;DHT22;27037;52.010;4.446;2023-07-20T03:14:31;16.40;99.90
41294;DHT22;27037;52.010;4.446;2023-07-20T03:16:56;16.40;99.90
41294;DHT22;27037;52.010;4.446;2023-07-20T03:19:22;16.30;99.90
41294;DHT22;27037;52.010;4.446;2023-07-20T03:21:48;16.30;99.90
41294;DHT22;27037;52.010;4.446;2023-07-20T03:24:13;16.30;99.90
41294;DHT22;27037;52.010;4.446;2023-07-20T03:26:39;16.20;99.90
41294;DHT22;27037;52.010;4.446;2023-07-20T03:29:05;16.20;99.90
41294;DHT22;27037;52.010;4.446;2023-07-20T03:31:32;16.20;99.90
41294;DHT22;27037;52.010;4.446;2023-07-20T03:33:57;16.10;99.90
41294;DHT22;27037;52.010;4.446;2023-07-20T03:36:23;16.20;99.90
41294;DHT22;27037;52.010;4.446;2023-07-20T03:38:49;16.20;99.90
41294;DHT22;27037;52.010;4.446;2023-07-20T03:41:15;16.20;99.90
41294;DHT22;27037;52.010;4.446;2023-07-20T03:43:41;16.20;99.90
41294;DHT22;27037;52.010;4.446;2023-07-20T03:46:07;16.20;99.90
41294;DHT22;27037;52.010;4.446;2023-07-20T03:48:33;16.30;99.90
41294;DHT22;27037;52.010;4.446;2023-07-20T03:50:59;16.30;99.90
41294;DHT22;27037;52.010;4.446;2023-07-20T03:53:28;16.20;99.90
41294;DHT22;27037;52.010;4.446;2023-07-20T03:55:54;16.20;99.90
41294;DHT22;27037;52.010;4.446;2023-07-20T03:58:20;16.30;99.90
41294;DHT22;27037;52.010;4.446;2023-07-20T04:00:50;16.30;99.90
41294;DHT22;27037;52.010;4.446;2023-07-20T04:03:17;16.30;99.90
41294;DHT22;27037;52.010;4.446;2023-07-20T04:05:43;16.30;99.90
41294;DHT22;27037;52.010;4.446;2023-07-20T04:08:10;16.30;99.90
41294;DHT22;27037;52.010;4.446;2023-07-20T04:10:36;16.30;99.90
41294;DHT22;27037;52.010;4.446;2023-07-20T04:13:02;16.30;99.90
41294;DHT22;27037;52.010;4.446;2023-07-20T04:15:28;16.30;99.90
41294;DHT22;27037;52.010;4.446;2023-07-20T04:17:53;16.30;99.90
41294;DHT22;27037;52.010;4.446;2023-07-20T04:20:22;16.30;99.90
41294;DHT22;27037;52.010;4.446;2023-07-20T04:22:48;16.20;99.90
41294;DHT22;27037;52.010;4.446;2023-07-20T04:25:13;16.20;99.90
41294;DHT22;27037;52.010;4.446;2023-07-20T04:27:39;16.10;99.90
41294;DHT22;27037;52.010;4.446;2023-07-20T04:30:07;16.10;99.90
41294;DHT22;27037;52.010;4.446;2023-07-20T04:32:33;16.20;99.90
41294;DHT22;27037;52.010;4.446;2023-07-20T04:34:59;16.10;99.90
41294;DHT22;27037;52.010;4.446;2023-07-20T04:37:25;16.20;99.90
41294;DHT22;27037;52.010;4.446;2023-07-20T04:39:50;16.20;99.90
41294;DHT22;27037;52.010;4.446;2023-07-20T04:42:16;16.20;99.90
41294;DHT22;27037;52.010;4.446;2023-07-20T04:44:42;16.20;99.90
41294;DHT22;27037;52.010;4.446;2023-07-20T04:47:07;16.20;99.90
41294;DHT22;27037;52.010;4.446;2023-07-20T04:49:34;16.20;99.90
41294;DHT22;27037;52.010;4.446;2023-07-20T04:52:00;16.20;99.90
41294;DHT22;27037;52.010;4.446;2023-07-20T04:54:25;16.20;99.90
41294;DHT22;27037;52.010;4.446;2023-07-20T04:56:53;16.20;99.90
41294;DHT22;27037;52.010;4.446;2023-07-20T04:59:19;16.30;99.90
41294;DHT22;27037;52.010;4.446;2023-07-20T05:01:44;16.30;99.90
41294;DHT22;27037;52.010;4.446;2023-07-20T05:04:10;16.40;99.90
41294;DHT22;27037;52.010;4.446;2023-07-20T05:06:36;16.40;99.90
41294;DHT22;27037;52.010;4.446;2023-07-20T05:09:01;16.50;99.90
41294;DHT22;27037;52.010;4.446;2023-07-20T05:11:27;16.50;99.90
41294;DHT22;27037;52.010;4.446;2023-07-20T05:13:53;16.60;99.90
41294;DHT22;27037;52.010;4.446;2023-07-20T05:16:18;16.60;99.90
41294;DHT22;27037;52.010;4.446;2023-07-20T05:18:44;16.70;99.90
41294;DHT22;27037;52.010;4.446;2023-07-20T05:21:09;16.70;99.90
41294;DHT22;27037;52.010;4.446;2023-07-20T05:23:35;16.70;99.90
41294;DHT22;27037;52.010;4.446;2023-07-20T05:26:01;16.80;99.90
41294;DHT22;27037;52.010;4.446;2023-07-20T05:28:27;16.80;99.90
41294;DHT22;27037;52.010;4.446;2023-07-20T05:30:53;16.90;99.90
41294;DHT22;27037;52.010;4.446;2023-07-20T05:33:19;17.00;99.90
41294;DHT22;27037;52.010;4.446;2023-07-20T05:35:45;17.00;99.90
41294;DHT22;27037;52.010;4.446;2023-07-20T05:38:11;17.00;99.90
41294;DHT22;27037;52.010;4.446;2023-07-20T05:40:39;17.00;99.90
41294;DHT22;27037;52.010;4.446;2023-07-20T05:43:05;17.10;99.90
41294;DHT22;27037;52.010;4.446;2023-07-20T05:45:31;17.20;99.90
41294;DHT22;27037;52.010;4.446;2023-07-20T05:47:56;17.20;99.90
41294;DHT22;27037;52.010;4.446;2023-07-20T05:50:22;17.20;99.90
41294;DHT22;27037;52.010;4.446;2023-07-20T05:52:47;17.20;99.90
41294;DHT22;27037;52.010;4.446;2023-07-20T05:55:13;17.20;99.90
41294;DHT22;27037;52.010;4.446;2023-07-20T05:57:39;17.20;99.90
41294;DHT22;27037;52.010;4.446;2023-07-20T06:00:08;17.20;99.90
41294;DHT22;27037;52.010;4.446;2023-07-20T06:02:34;17.20;99.90
41294;DHT22;27037;52.010;4.446;2023-07-20T06:04:59;17.20;99.90
41294;DHT22;27037;52.010;4.446;2023-07-20T06:07:25;17.20;99.90
41294;DHT22;27037;52.010;4.446;2023-07-20T06:09:51;17.30;99.90
41294;DHT22;27037;52.010;4.446;2023-07-20T06:12:16;17.20;99.90
41294;DHT22;27037;52.010;4.446;2023-07-20T06:14:42;17.20;99.90
41294;DHT22;27037;52.010;4.446;2023-07-20T06:17:08;17.30;99.90
41294;DHT22;27037;52.010;4.446;2023-07-20T06:19:33;17.30;99.90
41294;DHT22;27037;52.010;4.446;2023-07-20T06:21:59;17.40;99.90
41294;DHT22;27037;52.010;4.446;2023-07-20T06:24:25;17.50;99.90
41294;DHT22;27037;52.010;4.446;2023-07-20T06:26:50;17.60;99.90
41294;DHT22;27037;52.010;4.446;2023-07-20T06:29:16;17.70;99.90
41294;DHT22;27037;52.010;4.446;2023-07-20T06:31:41;17.70;99.90
41294;DHT22;27037;52.010;4.446;2023-07-20T06:34:07;17.80;99.90
41294;DHT22;27037;52.010;4.446;2023-07-20T06:36:33;17.90;99.90
41294;DHT22;27037;52.010;4.446;2023-07-20T06:38:58;17.90;99.90
41294;DHT22;27037;52.010;4.446;2023-07-20T06:41:24;18.00;99.90
41294;DHT22;27037;52.010;4.446;2023-07-20T06:43:50;18.10;99.90
41294;DHT22;27037;52.010;4.446;2023-07-20T06:46:15;18.10;99.90
41294;DHT22;27037;52.010;4.446;2023-07-20T06:48:41;18.10;99.90
41294;DHT22;27037;52.010;4.446;2023-07-20T06:51:07;18.10;99.90
41294;DHT22;27037;52.010;4.446;2023-07-20T06:53:32;18.10;99.90
41294;DHT22;27037;52.010;4.446;2023-07-20T06:55:58;18.10;99.90
41294;DHT22;27037;52.010;4.446;2023-07-20T06:58:24;18.10;99.90
41294;DHT22;27037;52.010;4.446;2023-07-20T07:00:50;18.10;99.90
41294;DHT22;27037;52.010;4.446;2023-07-20T07:03:16;18.20;99.90
41294;DHT22;27037;52.010;4.446;2023-07-20T07:05:42;18.20;99.90
41294;DHT22;27037;52.010;4.446;2023-07-20T07:08:08;18.30;99.90
41294;DHT22;27037;52.010;4.446;2023-07-20T07:10:35;18.30;99.90
41294;DHT22;27037;52.010;4.446;2023-07-20T07:13:01;18.30;99.90
41294;DHT22;27037;52.010;4.446;2023-07-20T07:15:27;18.30;99.90
41294;DHT22;27037;52.010;4.446;2023-07-20T07:17:53;18.40;99.90
41294;DHT22;27037;52.010;4.446;2023-07-20T07:20:19;18.50;99.90
41294;DHT22;27037;52.010;4.446;2023-07-20T07:22:44;18.60;99.90
41294;DHT22;27037;52.010;4.446;2023-07-20T07:25:10;18.70;99.90
41294;DHT22;27037;52.010;4.446;2023-07-20T07:27:36;18.80;99.90
41294;DHT22;27037;52.010;4.446;2023-07-20T07:30:05;18.90;99.90
41294;DHT22;27037;52.010;4.446;2023-07-20T07:32:31;19.10;99.90
41294;DHT22;27037;52.010;4.446;2023-07-20T07:34:57;19.30;99.90
41294;DHT22;27037;52.010;4.446;2023-07-20T07:37:26;19.40;99.90
41294;DHT22;27037;52.010;4.446;2023-07-20T07:39:51;19.60;99.90
41294;DHT22;27037;52.010;4.446;2023-07-20T07:42:17;19.70;99.90
41294;DHT22;27037;52.010;4.446;2023-07-20T07:44:44;19.80;99.90
41294;DHT22;27037;52.010;4.446;2023-07-20T07:47:10;19.90;99.90
41294;DHT22;27037;52.010;4.446;2023-07-20T07:49:35;20.10;99.90
41294;DHT22;27037;52.010;4.446;2023-07-20T07:52:01;20.30;99.90
41294;DHT22;27037;52.010;4.446;2023-07-20T07:54:29;20.40;99.90
41294;DHT22;27037;52.010;4.446;2023-07-20T07:56:55;20.60;99.90
41294;DHT22;27037;52.010;4.446;2023-07-20T07:59:21;20.80;99.90
41294;DHT22;27037;52.010;4.446;2023-07-20T08:01:47;20.80;99.90
41294;DHT22;27037;52.010;4.446;2023-07-20T08:04:13;20.80;99.90
41294;DHT22;27037;52.010;4.446;2023-07-20T08:06:39;20.60;99.90
41294;DHT22;27037;52.010;4.446;2023-07-20T08:09:05;20.30;99.90
41294;DHT22;27037;52.010;4.446;2023-07-20T08:11:30;20.00;99.90
41294;DHT22;27037;52.010;4.446;2023-07-20T08:13:59;19.80;99.90
41294;DHT22;27037;52.010;4.446;2023-07-20T08:16:25;19.50;99.90
41294;DHT22;27037;52.010;4.446;2023-07-20T08:18:51;19.40;99.90
41294;DHT22;27037;52.010;4.446;2023-07-20T08:21:16;19.30;99.90
41294;DHT22;27037;52.010;4.446;2023-07-20T08:23:42;19.20;99.90
41294;DHT22;27037;52.010;4.446;2023-07-20T08:26:08;19.00;99.90
41294;DHT22;27037;52.010;4.446;2023-07-20T08:28:34;19.00;99.90
41294;DHT22;27037;52.010;4.446;2023-07-20T08:31:00;19.10;99.90
41294;DHT22;27037;52.010;4.446;2023-07-20T08:33:26;19.20;99.90
41294;DHT22;27037;52.010;4.446;2023-07-20T08:35:54;19.40;99.90
41294;DHT22;27037;52.010;4.446;2023-07-20T08:38:21;19.50;99.90
41294;DHT22;27037;52.010;4.446;2023-07-20T08:40:47;19.70;99.90
41294;DHT22;27037;52.010;4.446;2023-07-20T08:43:14;19.90;99.90
41294;DHT22;27037;52.010;4.446;2023-07-20T08:45:42;20.20;99.90
41294;DHT22;27037;52.010;4.446;2023-07-20T08:48:08;20.40;99.90
41294;DHT22;27037;52.010;4.446;2023-07-20T08:50:34;20.70;99.90
41294;DHT22;27037;52.010;4.446;2023-07-20T08:53:01;21.00;99.90
41294;DHT22;27037;52.010;4.446;2023-07-20T08:55:28;21.20;99.90
41294;DHT22;27037;52.010;4.446;2023-07-20T08:57:55;21.30;99.90
41294;DHT22;27037;52.010;4.446;2023-07-20T09:00:21;21.40;99.90
41294;DHT22;27037;52.010;4.446;2023-07-20T09:02:50;21.50;99.90
41294;DHT22;27037;52.010;4.446;2023-07-20T09:05:17;21.80;99.90
41294;DHT22;27037;52.010;4.446;2023-07-20T09:07:43;22.10;99.90
41294;DHT22;27037;52.010;4.446;2023-07-20T09:10:09;22.30;99.90
41294;DHT22;27037;52.010;4.446;2023-07-20T09:12:40;22.60;99.90
41294;DHT22;27037;52.010;4.446;2023-07-20T09:15:07;22.70;99.90
41294;DHT22;27037;52.010;4.446;2023-07-20T09:17:33;22.70;99.90
41294;DHT22;27037;52.010;4.446;2023-07-20T09:20:02;22.70;99.90
41294;DHT22;27037;52.010;4.446;2023-07-20T09:22:33;22.60;99.90
41294;DHT22;27037;52.010;4.446;2023-07-20T09:24:59;22.40;99.90
41294;DHT22;27037;52.010;4.446;2023-07-20T09:27:38;22.20;99.90
41294;DHT22;27037;52.010;4.446;2023-07-20T09:30:05;22.30;99.90
41294;DHT22;27037;52.010;4.446;2023-07-20T09:32:44;22.40;99.90
41294;DHT22;27037;52.010;4.446;2023-07-20T09:35:21;22.50;99.90
41294;DHT22;27037;52.010;4.446;2023-07-20T09:37:51;22.50;99.90
41294;DHT22;27037;52.010;4.446;2023-07-20T09:40:20;22.60;99.90
41294;DHT22;27037;52.010;4.446;2023-07-20T09:42:46;22.70;99.90
41294;DHT22;27037;52.010;4.446;2023-07-20T09:45:12;22.70;99.90
41294;DHT22;27037;52.010;4.446;2023-07-20T09:47:38;22.80;99.90
41294;DHT22;27037;52.010;4.446;2023-07-20T09:50:05;22.90;99.90
41294;DHT22;27037;52.010;4.446;2023-07-20T09:52:45;23.10;99.90
41294;DHT22;27037;52.010;4.446;2023-07-20T09:55:10;23.00;99.90
41294;DHT22;27037;52.010;4.446;2023-07-20T09:57:39;22.90;99.90
41294;DHT22;27037;52.010;4.446;2023-07-20T10:00:07;22.80;99.90
41294;DHT22;27037;52.010;4.446;2023-07-20T10:02:42;22.70;99.90
41294;DHT22;27037;52.010;4.446;2023-07-20T10:05:11;22.20;99.70
41294;DHT22;27037;52.010;4.446;2023-07-20T10:07:47;21.90;99.90
41294;DHT22;27037;52.010;4.446;2023-07-20T10:10:14;21.80;99.90
41294;DHT22;27037;52.010;4.446;2023-07-20T10:12:43;21.80;99.90
41294;DHT22;27037;52.010;4.446;2023-07-20T10:20:20;22.50;99.90
41294;DHT22;27037;52.010;4.446;2023-07-20T10:22:47;22.70;99.90
41294;DHT22;27037;52.010;4.446;2023-07-20T10:25:13;22.80;99.80
41294;DHT22;27037;52.010;4.446;2023-07-20T10:27:40;22.80;99.40
41294;DHT22;27037;52.010;4.446;2023-07-20T10:30:06;22.80;99.10
41294;DHT22;27037;52.010;4.446;2023-07-20T10:32:32;22.80;99.00
41294;DHT22;27037;52.010;4.446;2023-07-20T10:34:58;22.80;98.80
41294;DHT22;27037;52.010;4.446;2023-07-20T10:37:52;22.80;98.40
41294;DHT22;27037;52.010;4.446;2023-07-20T10:40:32;22.70;97.60
41294;DHT22;27037;52.010;4.446;2023-07-20T10:43:06;22.70;98.10
41294;DHT22;27037;52.010;4.446;2023-07-20T10:45:51;22.80;98.10
41294;DHT22;27037;52.010;4.446;2023-07-20T10:48:24;23.10;97.80
41294;DHT22;27037;52.010;4.446;2023-07-20T10:51:11;23.30;97.70
41294;DHT22;27037;52.010;4.446;2023-07-20T10:53:37;23.30;96.40
41294;DHT22;27037;52.010;4.446;2023-07-20T10:56:12;23.40;96.50
41294;DHT22;27037;52.010;4.446;2023-07-20T10:58:40;23.50;96.10
41294;DHT22;27037;52.010;4.446;2023-07-20T11:01:07;23.60;95.60
41294;DHT22;27037;52.010;4.446;2023-07-20T11:03:38;23.50;95.60
41294;DHT22;27037;52.010;4.446;2023-07-20T11:09:09;23.30;94.80
41294;DHT22;27037;52.010;4.446;2023-07-20T11:11:46;23.50;95.10
41294;DHT22;27037;52.010;4.446;2023-07-20T11:14:25;23.60;95.00
41294;DHT22;27037;52.010;4.446;2023-07-20T11:16:52;23.80;94.30
41294;DHT22;27037;52.010;4.446;2023-07-20T11:21:46;23.80;93.20
41294;DHT22;27037;52.010;4.446;2023-07-20T11:24:12;23.50;93.00
41294;DHT22;27037;52.010;4.446;2023-07-20T11:29:16;23.10;93.50
41294;DHT22;27037;52.010;4.446;2023-07-20T11:31:42;23.10;93.80
41294;DHT22;27037;52.010;4.446;2023-07-20T11:34:14;23.10;93.60
41294;DHT22;27037;52.010;4.446;2023-07-20T11:36:41;23.20;93.80
41294;DHT22;27037;52.010;4.446;2023-07-20T11:39:12;23.40;93.70
41294;DHT22;27037;52.010;4.446;2023-07-20T11:41:38;23.60;93.60
41294;DHT22;27037;52.010;4.446;2023-07-20T11:44:05;23.90;93.60
41294;DHT22;27037;52.010;4.446;2023-07-20T11:46:39;24.10;92.90
41294;DHT22;27037;52.010;4.446;2023-07-20T11:49:05;24.20;90.90
41294;DHT22;27037;52.010;4.446;2023-07-20T11:51:31;24.20;91.00
41294;DHT22;27037;52.010;4.446;2023-07-20T11:53:58;24.40;90.70
41294;DHT22;27037;52.010;4.446;2023-07-20T11:56:25;24.50;90.40
41294;DHT22;27037;52.010;4.446;2023-07-20T11:58:54;24.60;90.20
41294;DHT22;27037;52.010;4.446;2023-07-20T12:01:20;24.60;90.20
41294;DHT22;27037;52.010;4.446;2023-07-20T12:03:48;24.80;90.00
41294;DHT22;27037;52.010;4.446;2023-07-20T12:06:13;24.80;88.70
41294;DHT22;27037;52.010;4.446;2023-07-20T12:08:43;24.80;88.40
41294;DHT22;27037;52.010;4.446;2023-07-20T12:11:09;24.80;87.30
41294;DHT22;27037;52.010;4.446;2023-07-20T12:13:42;24.80;88.00
41294;DHT22;27037;52.010;4.446;2023-07-20T12:16:14;25.00;86.00
41294;DHT22;27037;52.010;4.446;2023-07-20T12:18:41;25.10;84.80
41294;DHT22;27037;52.010;4.446;2023-07-20T12:21:07;25.20;85.90
41294;DHT22;27037;52.010;4.446;2023-07-20T12:23:38;25.40;84.20
41294;DHT22;27037;52.010;4.446;2023-07-20T12:26:09;25.60;81.60
41294;DHT22;27037;52.010;4.446;2023-07-20T12:28:39;25.60;80.10
41294;DHT22;27037;52.010;4.446;2023-07-20T12:31:09;25.70;79.60
41294;DHT22;27037;52.010;4.446;2023-07-20T12:33:38;25.70;79.30
41294;DHT22;27037;52.010;4.446;2023-07-20T12:36:04;25.70;78.90
41294;DHT22;27037;52.010;4.446;2023-07-20T12:38:30;25.60;78.70
41294;DHT22;27037;52.010;4.446;2023-07-20T12:40:57;25.50;78.40
41294;DHT22;27037;52.010;4.446;2023-07-20T12:43:23;25.40;78.20
41294;DHT22;27037;52.010;4.446;2023-07-20T12:45:49;25.30;77.30
41294;DHT22;27037;52.010;4.446;2023-07-20T12:48:15;25.30;76.90
41294;DHT22;27037;52.010;4.446;2023-07-20T12:50:41;25.40;76.50
41294;DHT22;27037;52.010;4.446;2023-07-20T12:53:07;25.40;76.00
41294;DHT22;27037;52.010;4.446;2023-07-20T12:55:32;25.40;75.20
41294;DHT22;27037;52.010;4.446;2023-07-20T12:57:58;25.40;75.20
41294;DHT22;27037;52.010;4.446;2023-07-20T13:00:24;25.40;74.30
41294;DHT22;27037;52.010;4.446;2023-07-20T13:02:52;25.30;74.30
41294;DHT22;27037;52.010;4.446;2023-07-20T13:05:18;25.30;74.30
41294;DHT22;27037;52.010;4.446;2023-07-20T13:07:44;25.30;73.90
41294;DHT22;27037;52.010;4.446;2023-07-20T13:10:10;25.20;73.90
41294;DHT22;27037;52.010;4.446;2023-07-20T13:12:37;25.10;74.20
41294;DHT22;27037;52.010;4.446;2023-07-20T13:15:05;24.90;75.00
41294;DHT22;27037;52.010;4.446;2023-07-20T13:17:37;24.70;75.40
41294;DHT22;27037;52.010;4.446;2023-07-20T13:20:05;24.60;76.20
41294;DHT22;27037;52.010;4.446;2023-07-20T13:22:32;24.60;76.60
41294;DHT22;27037;52.010;4.446;2023-07-20T13:24:57;24.70;76.40
41294;DHT22;27037;52.010;4.446;2023-07-20T13:27:23;24.80;76.20
41294;DHT22;27037;52.010;4.446;2023-07-20T13:29:51;24.90;74.90
41294;DHT22;27037;52.010;4.446;2023-07-20T13:32:17;24.80;74.70
41294;DHT22;27037;52.010;4.446;2023-07-20T13:34:46;24.70;74.90
41294;DHT22;27037;52.010;4.446;2023-07-20T13:37:12;24.60;74.50
41294;DHT22;27037;52.010;4.446;2023-07-20T13:39:38;24.50;75.60
41294;DHT22;27037;52.010;4.446;2023-07-20T13:42:05;24.50;74.40
41294;DHT22;27037;52.010;4.446;2023-07-20T13:44:31;24.40;74.40
41294;DHT22;27037;52.010;4.446;2023-07-20T13:46:57;24.60;75.00
41294;DHT22;27037;52.010;4.446;2023-07-20T13:49:23;24.60;74.60
41294;DHT22;27037;52.010;4.446;2023-07-20T13:51:49;24.60;73.30
41294;DHT22;27037;52.010;4.446;2023-07-20T13:54:15;24.50;73.00
41294;DHT22;27037;52.010;4.446;2023-07-20T13:56:41;24.40;72.20
41294;DHT22;27037;52.010;4.446;2023-07-20T13:59:06;24.40;72.60
41294;DHT22;27037;52.010;4.446;2023-07-20T14:01:32;24.40;71.60
41294;DHT22;27037;52.010;4.446;2023-07-20T14:03:59;24.50;72.20
41294;DHT22;27037;52.010;4.446;2023-07-20T14:06:25;24.60;72.10
41294;DHT22;27037;52.010;4.446;2023-07-20T14:08:51;24.70;71.90
41294;DHT22;27037;52.010;4.446;2023-07-20T14:11:18;24.80;71.00
41294;DHT22;27037;52.010;4.446;2023-07-20T14:13:44;25.00;70.30
41294;DHT22;27037;52.010;4.446;2023-07-20T14:16:10;25.00;69.40
41294;DHT22;27037;52.010;4.446;2023-07-20T14:18:36;25.10;68.50
41294;DHT22;27037;52.010;4.446;2023-07-20T14:21:01;25.10;67.50
41294;DHT22;27037;52.010;4.446;2023-07-20T14:23:29;25.10;67.60
41294;DHT22;27037;52.010;4.446;2023-07-20T14:25:54;25.10;67.50
41294;DHT22;27037;52.010;4.446;2023-07-20T14:28:20;25.10;67.60
41294;DHT22;27037;52.010;4.446;2023-07-20T14:30:46;25.20;68.10
41294;DHT22;27037;52.010;4.446;2023-07-20T14:33:12;25.20;67.70
41294;DHT22;27037;52.010;4.446;2023-07-20T14:35:38;25.30;68.10
41294;DHT22;27037;52.010;4.446;2023-07-20T14:38:03;25.30;67.60
41294;DHT22;27037;52.010;4.446;2023-07-20T14:40:29;25.30;67.70
41294;DHT22;27037;52.010;4.446;2023-07-20T14:42:56;25.20;67.90
41294;DHT22;27037;52.010;4.446;2023-07-20T14:45:21;25.20;68.70
41294;DHT22;27037;52.010;4.446;2023-07-20T14:47:47;25.10;68.60
41294;DHT22;27037;52.010;4.446;2023-07-20T14:50:19;25.00;69.00
41294;DHT22;27037;52.010;4.446;2023-07-20T14:52:45;25.00;68.20
41294;DHT22;27037;52.010;4.446;2023-07-20T14:55:11;24.70;67.90
41294;DHT22;27037;52.010;4.446;2023-07-20T14:57:36;24.50;69.00
41294;DHT22;27037;52.010;4.446;2023-07-20T15:00:03;24.40;69.60
41294;DHT22;27037;52.010;4.446;2023-07-20T15:02:33;24.50;70.10
41294;DHT22;27037;52.010;4.446;2023-07-20T15:04:59;24.40;69.90
41294;DHT22;27037;52.010;4.446;2023-07-20T15:07:25;24.10;70.30
41294;DHT22;27037;52.010;4.446;2023-07-20T15:09:51;23.90;71.80
41294;DHT22;27037;52.010;4.446;2023-07-20T15:12:17;23.90;71.90
41294;DHT22;27037;52.010;4.446;2023-07-20T15:14:43;23.70;72.20
41294;DHT22;27037;52.010;4.446;2023-07-20T15:17:12;23.50;73.30
41294;DHT22;27037;52.010;4.446;2023-07-20T15:19:38;23.50;73.80
41294;DHT22;27037;52.010;4.446;2023-07-20T15:22:04;23.50;73.70
41294;DHT22;27037;52.010;4.446;2023-07-20T15:24:30;23.30;74.20
41294;DHT22;27037;52.010;4.446;2023-07-20T15:26:56;23.20;75.40
41294;DHT22;27037;52.010;4.446;2023-07-20T15:29:23;23.20;75.90
41294;DHT22;27037;52.010;4.446;2023-07-20T15:31:49;23.30;76.10
41294;DHT22;27037;52.010;4.446;2023-07-20T15:34:14;23.50;77.30
41294;DHT22;27037;52.010;4.446;2023-07-20T15:36:41;23.50;76.30
41294;DHT22;27037;52.010;4.446;2023-07-20T15:39:09;23.60;75.50
41294;DHT22;27037;52.010;4.446;2023-07-20T15:41:35;23.70;74.40
41294;DHT22;27037;52.010;4.446;2023-07-20T15:44:01;23.70;74.50
41294;DHT22;27037;52.010;4.446;2023-07-20T15:49:05;23.90;74.50
41294;DHT22;27037;52.010;4.446;2023-07-20T15:51:32;23.70;74.60
41294;DHT22;27037;52.010;4.446;2023-07-20T15:53:57;23.80;75.00
41294;DHT22;27037;52.010;4.446;2023-07-20T15:56:23;23.80;75.20
41294;DHT22;27037;52.010;4.446;2023-07-20T15:58:49;23.80;74.20
41294;DHT22;27037;52.010;4.446;2023-07-20T16:01:14;23.80;73.10